Time;durP1;ratioP1;P1;durP2;ratioP2;P2;SDS_P1;SDS_P2;PMS_P1;PMS_P2;Temp;Humidity;BMP_temperature;BMP_pressure;BME280_temperature;BME280_humidity;BME280_pressure;Samples;Min_cycle;Max_cycle;Signal;HPM_P1;HPM_P2
2021/01/29 00:00:08;;;;;;;3.20;2.30;;;;;;;-3.05;100.00;99684.97;4927740;29;20296;-71
2021/01/29 00:02:37;;;;;;;2.60;2.13;;;;;;;-3.04;100.00;99681.59;4923497;29;20483;-71
2021/01/29 00:05:04;;;;;;;5.43;2.23;;;;;;;-3.10;100.00;99684.91;4927875;29;20204;-71
2021/01/29 00:07:30;;;;;;;3.93;2.33;;;;;;;-3.11;100.00;99677.25;4929495;29;21048;-71
2021/01/29 00:09:55;;;;;;;3.63;2.70;;;;;;;-3.14;100.00;99672.09;4927022;29;20207;-71
2021/01/29 00:12:24;;;;;;;3.80;2.37;;;;;;;-3.22;100.00;99677.06;4926393;29;20238;-71
2021/01/29 00:14:50;;;;;;;3.07;2.17;;;;;;;-3.24;100.00;99678.75;4928050;29;20208;-72
2021/01/29 00:17:16;;;;;;;3.43;2.20;;;;;;;-3.26;100.00;99673.63;4921207;29;20455;-71
2021/01/29 00:19:42;;;;;;;2.87;2.10;;;;;;;-3.26;100.00;99670.22;4928165;29;20668;-71
2021/01/29 00:22:08;;;;;;;3.63;2.40;;;;;;;-3.36;100.00;99670.91;4930916;29;20485;-71
2021/01/29 00:24:34;;;;;;;2.77;2.10;;;;;;;-3.44;100.00;99678.47;4932381;28;20538;-71
2021/01/29 00:27:00;;;;;;;2.43;1.83;;;;;;;-3.50;100.00;99678.34;4926938;29;20463;-71
2021/01/29 00:29:27;;;;;;;3.80;1.93;;;;;;;-3.46;100.00;99678.44;4928845;29;20207;-72
2021/01/29 00:31:52;;;;;;;2.43;1.97;;;;;;;-3.51;100.00;99681.75;4929481;29;20249;-71
2021/01/29 00:34:18;;;;;;;2.77;1.80;;;;;;;-3.66;100.00;99679.81;4927109;29;20461;-71
2021/01/29 00:36:44;;;;;;;2.60;1.90;;;;;;;-3.76;100.00;99681.34;4928540;29;20886;-71
2021/01/29 00:39:10;;;;;;;2.90;2.07;;;;;;;-3.73;100.00;99673.78;4925933;29;20409;-72
2021/01/29 00:41:36;;;;;;;2.13;1.80;;;;;;;-3.78;100.00;99675.38;4928170;29;20471;-72
2021/01/29 00:44:03;;;;;;;2.53;1.77;;;;;;;-3.83;100.00;99666.81;4939030;28;20201;-70
2021/01/29 00:46:30;;;;;;;2.27;1.73;;;;;;;-3.86;100.00;99667.59;4930716;29;20206;-70
2021/01/29 00:48:56;;;;;;;2.47;1.67;;;;;;;-3.83;100.00;99664.25;4938424;29;20469;-71
2021/01/29 00:51:22;;;;;;;3.13;2.07;;;;;;;-3.84;100.00;99657.44;4931687;29;21016;-70
2021/01/29 00:53:48;;;;;;;2.60;2.13;;;;;;;-3.84;100.00;99652.34;4926194;29;20209;-69
2021/01/29 00:56:25;;;;;;;3.03;2.20;;;;;;;-3.86;100.00;99646.38;4946552;28;20247;-71
2021/01/29 00:59:03;;;;;;;2.77;1.77;;;;;;;-3.93;100.00;99642.84;4926837;29;20466;-71
2021/01/29 01:01:53;;;;;;;2.13;1.60;;;;;;;-4.08;100.00;99640.03;4927828;29;20468;-70
2021/01/29 01:04:19;;;;;;;3.53;1.70;;;;;;;-4.08;100.00;99650.22;4924178;29;20554;-72
2021/01/29 01:06:45;;;;;;;2.53;1.80;;;;;;;-4.12;100.00;99653.56;4933740;29;20455;-70
2021/01/29 01:09:29;;;;;;;3.87;2.00;;;;;;;-4.14;100.00;99650.13;4924935;29;20203;-70
2021/01/29 01:11:55;;;;;;;3.47;2.17;;;;;;;-4.07;100.00;99639.22;4926604;29;20497;-72
2021/01/29 01:14:40;;;;;;;2.17;1.97;;;;;;;-4.01;100.00;99636.78;4929330;29;20358;-70
2021/01/29 01:17:26;;;;;;;2.80;2.00;;;;;;;-4.06;100.00;99643.50;4932747;29;20559;-72
2021/01/29 01:20:06;;;;;;;2.53;2.00;;;;;;;-4.06;100.00;99649.44;4946548;29;20468;-71
2021/01/29 01:22:32;;;;;;;3.67;2.10;;;;;;;-4.14;100.00;99650.97;4916762;29;20482;-72
2021/01/29 01:25:08;;;;;;;3.37;2.10;;;;;;;-4.19;100.00;99648.38;4953235;28;20458;-72
2021/01/29 01:27:34;;;;;;;2.60;1.80;;;;;;;-4.18;100.00;99649.22;4933070;29;20463;-71
2021/01/29 01:30:32;;;;;;;4.67;1.97;;;;;;;-4.11;100.00;99642.56;4944572;28;20462;-72
2021/01/29 01:33:05;;;;;;;1.63;1.47;;;;;;;-4.12;100.00;99639.13;4931014;29;20476;-71
2021/01/29 01:35:48;;;;;;;4.73;2.10;;;;;;;-4.14;100.00;99642.50;4913687;29;20468;-71
2021/01/29 01:38:17;;;;;;;2.53;2.20;;;;;;;-4.19;100.00;99640.75;4950266;28;20464;-72
2021/01/29 01:40:46;;;;;;;3.10;2.20;;;;;;;-4.18;100.00;99641.59;4926275;29;20447;-71
2021/01/29 01:43:25;;;;;;;2.83;1.90;;;;;;;-4.24;100.00;99652.53;4933366;29;20471;-72
2021/01/29 01:46:12;;;;;;;1.80;1.60;;;;;;;-4.31;100.00;99657.47;4923566;29;20816;-71
2021/01/29 01:48:52;;;;;;;3.63;2.37;;;;;;;-4.35;100.00;99661.63;4946914;28;20470;-71
2021/01/29 01:51:45;;;;;;;3.50;2.13;;;;;;;-4.26;100.00;99659.25;4927093;29;20539;-71
2021/01/29 01:54:21;;;;;;;3.03;2.37;;;;;;;-4.18;100.00;99659.41;4931553;29;20476;-72
2021/01/29 01:56:51;;;;;;;4.43;2.53;;;;;;;-4.12;100.00;99653.56;4931582;29;20451;-70
2021/01/29 01:59:41;;;;;;;3.23;2.00;;;;;;;-4.06;100.00;99654.53;4921371;29;20440;-72
2021/01/29 02:02:21;;;;;;;2.73;2.13;;;;;;;-4.04;100.00;99650.31;4927651;29;20539;-72
2021/01/29 02:05:11;;;;;;;2.33;2.00;;;;;;;-3.98;100.00;99644.47;4930552;29;20580;-71
2021/01/29 02:08:02;;;;;;;3.37;2.43;;;;;;;-3.95;100.00;99648.78;4945768;28;20982;-71
2021/01/29 02:10:49;;;;;;;2.97;2.10;;;;;;;-3.93;100.00;99655.59;4930899;29;20991;-71
2021/01/29 02:13:21;;;;;;;3.63;2.27;;;;;;;-3.91;100.00;99659.00;4957593;28;20580;-72
2021/01/29 02:16:11;;;;;;;3.67;2.67;;;;;;;-3.85;100.00;99659.13;4928880;29;20989;-71
2021/01/29 02:18:48;;;;;;;3.03;2.17;;;;;;;-3.78;100.00;99633.75;4926583;29;20952;-71
2021/01/29 02:21:59;;;;;;;5.00;2.20;;;;;;;-3.74;100.00;99636.38;4914848;29;20584;-71
2021/01/29 02:25:17;;;;;;;3.73;2.57;;;;;;;-3.73;100.00;99625.38;4927616;29;20504;-71
2021/01/29 02:27:51;;;;;;;4.47;2.70;;;;;;;-3.71;100.00;99621.16;4932167;28;20462;-71
2021/01/29 02:31:08;;;;;;;2.57;2.00;;;;;;;-3.67;100.00;99625.44;4947664;28;20470;-71
2021/01/29 02:34:31;;;;;;;2.87;2.03;;;;;;;-3.67;100.00;99630.53;4931069;28;21020;-72
2021/01/29 02:37:43;;;;;;;3.23;1.97;;;;;;;-3.63;100.00;99608.50;4949383;28;20895;-70
2021/01/29 02:40:36;;;;;;;3.50;2.37;;;;;;;-3.57;100.00;99600.09;4915304;28;20469;-72
2021/01/29 02:43:20;;;;;;;5.10;2.47;;;;;;;-3.56;100.00;99606.91;4948908;28;20556;-71
2021/01/29 02:46:16;;;;;;;5.33;2.23;;;;;;;-3.55;100.00;99596.75;4947297;28;20728;-71
2021/01/29 02:49:02;;;;;;;3.27;2.53;;;;;;;-3.49;100.00;99595.97;4949198;28;20473;-71
2021/01/29 02:51:38;;;;;;;4.17;2.20;;;;;;;-3.51;100.00;99590.00;4945626;28;20490;-70
2021/01/29 02:54:46;;;;;;;3.50;2.50;;;;;;;-3.49;100.00;99590.88;4940716;28;20453;-72
2021/01/29 02:57:39;;;;;;;4.40;2.27;;;;;;;-3.44;100.00;99585.00;4948989;28;20447;-70
2021/01/29 03:00:22;;;;;;;4.33;3.03;;;;;;;-3.42;100.00;99585.03;4932160;29;20469;-70
2021/01/29 03:03:00;;;;;;;3.00;2.53;;;;;;;-3.37;100.00;99585.09;4948970;28;20558;-71
2021/01/29 03:05:41;;;;;;;3.40;2.40;;;;;;;-3.36;100.00;99582.56;4931951;29;20476;-71
2021/01/29 03:08:13;;;;;;;3.80;2.70;;;;;;;-3.39;100.00;99582.53;4947907;28;20915;-71
2021/01/29 03:11:05;;;;;;;2.77;2.10;;;;;;;-3.35;100.00;99574.06;4950891;28;20854;-71
2021/01/29 03:13:58;;;;;;;7.00;2.63;;;;;;;-3.33;100.00;99574.94;4949610;28;20519;-71
2021/01/29 03:16:54;;;;;;;3.13;2.50;;;;;;;-3.32;100.00;99575.84;4950259;28;20472;-71
2021/01/29 03:19:48;;;;;;;3.30;2.47;;;;;;;-3.31;100.00;99568.16;4947787;28;20963;-71
2021/01/29 03:22:36;;;;;;;4.47;3.30;;;;;;;-3.33;100.00;99569.84;4946287;28;20496;-71
2021/01/29 03:25:26;;;;;;;3.77;2.37;;;;;;;-3.28;100.00;99567.38;4950413;28;20451;-71
2021/01/29 03:28:39;;;;;;;3.17;2.60;;;;;;;-3.27;100.00;99574.19;4966696;28;20814;-71
2021/01/29 03:31:43;;;;;;;2.93;2.20;;;;;;;-3.29;100.00;99574.19;4932789;28;20461;-71
2021/01/29 03:34:47;;;;;;;3.70;2.80;;;;;;;-3.33;100.00;99567.31;4921497;29;20875;-72
2021/01/29 03:37:38;;;;;;;3.00;2.37;;;;;;;-3.32;100.00;99573.28;4946777;28;20450;-72
2021/01/29 03:40:23;;;;;;;5.33;2.83;;;;;;;-3.27;100.00;99562.28;4945560;28;20466;-71
2021/01/29 03:43:16;;;;;;;3.90;2.80;;;;;;;-3.29;100.00;99558.00;4944842;28;21039;-72
2021/01/29 03:46:08;;;;;;;4.03;2.63;;;;;;;-3.26;100.00;99563.16;4940001;28;20447;-70
2021/01/29 03:49:01;;;;;;;3.73;2.73;;;;;;;-3.26;100.00;99565.69;4947491;28;20414;-72
2021/01/29 03:51:56;;;;;;;6.47;3.37;;;;;;;-3.25;100.00;99560.63;4946084;28;20235;-70
2021/01/29 03:54:52;;;;;;;4.87;2.93;;;;;;;-3.25;100.00;99558.06;4950198;28;20733;-72
2021/01/29 03:57:46;;;;;;;4.47;3.03;;;;;;;-3.24;100.00;99546.16;4946920;28;20629;-73
2021/01/29 04:00:57;;;;;;;3.70;2.83;;;;;;;-3.24;100.00;99549.59;4905088;29;20455;-70
2021/01/29 04:03:45;;;;;;;4.20;2.97;;;;;;;-3.27;100.00;99541.91;4900565;29;20493;-71
2021/01/29 04:06:36;;;;;;;4.57;2.77;;;;;;;-3.27;100.00;99539.34;4933199;28;20460;-70
2021/01/29 04:09:25;;;;;;;3.70;2.50;;;;;;;-3.27;100.00;99536.81;4944821;28;20567;-71
2021/01/29 04:12:13;;;;;;;5.53;3.00;;;;;;;-3.26;100.00;99535.09;4939847;29;20477;-71
2021/01/29 04:15:03;;;;;;;4.63;2.87;;;;;;;-3.25;100.00;99531.72;4946435;28;20273;-72
2021/01/29 04:17:34;;;;;;;4.87;2.67;;;;;;;-3.22;100.00;99523.25;4949675;28;20460;-71
2021/01/29 04:20:07;;;;;;;5.23;3.00;;;;;;;-3.20;100.00;99516.47;4945497;28;20469;-69
2021/01/29 04:22:38;;;;;;;4.77;3.00;;;;;;;-3.20;100.00;99522.44;4950158;28;20489;-71
2021/01/29 04:25:12;;;;;;;3.93;2.90;;;;;;;-3.26;100.00;99515.56;4932346;28;20221;-70
2021/01/29 04:27:41;;;;;;;4.60;3.27;;;;;;;-3.22;100.00;99515.59;4945787;28;20460;-71
2021/01/29 04:30:10;;;;;;;4.63;3.07;;;;;;;-3.24;100.00;99513.03;4949101;28;20258;-69
2021/01/29 04:32:40;;;;;;;4.63;3.23;;;;;;;-3.27;100.00;99516.41;4939469;28;20568;-71
2021/01/29 04:35:10;;;;;;;5.43;2.57;;;;;;;-3.22;100.00;99508.78;4946880;28;20218;-72
2021/01/29 04:37:44;;;;;;;4.93;3.33;;;;;;;-3.25;100.00;99504.53;4946712;28;20194;-73
2021/01/29 04:40:22;;;;;;;4.23;2.67;;;;;;;-3.20;100.00;99501.16;4944604;28;20474;-72
2021/01/29 04:43:03;;;;;;;4.37;3.03;;;;;;;-3.20;100.00;99502.03;4945685;28;20543;-70
2021/01/29 04:45:52;;;;;;;6.30;2.87;;;;;;;-3.24;100.00;99502.81;4945262;28;20826;-70
2021/01/29 04:48:27;;;;;;;5.77;3.40;;;;;;;-3.24;100.00;99505.38;4949609;28;20220;-71
2021/01/29 04:51:14;;;;;;;4.10;2.97;;;;;;;-3.22;100.00;99511.34;4947354;28;20206;-71
2021/01/29 04:54:28;;;;;;;4.00;2.70;;;;;;;-3.18;100.00;99509.69;4941799;28;20515;-71
2021/01/29 04:57:16;;;;;;;4.90;3.00;;;;;;;-3.20;100.00;99514.78;4904950;29;20498;-71
2021/01/29 05:00:09;;;;;;;5.07;3.10;;;;;;;-3.19;100.00;99502.88;4907600;29;21098;-71
2021/01/29 05:03:21;;;;;;;4.57;3.03;;;;;;;-3.11;100.00;99491.09;4945347;28;20492;-71
2021/01/29 05:06:34;;;;;;;5.13;3.07;;;;;;;-3.13;100.00;99485.09;4940626;28;20525;-72
2021/01/29 05:09:46;;;;;;;4.60;3.40;;;;;;;-3.12;100.00;99485.13;4947998;28;20504;-71
2021/01/29 05:12:37;;;;;;;3.77;2.60;;;;;;;-3.08;100.00;99474.13;4942597;28;20260;-70
2021/01/29 05:15:24;;;;;;;6.43;4.17;;;;;;;-3.05;100.00;99466.50;4948183;28;20818;-72
2021/01/29 05:18:30;;;;;;;7.53;5.07;;;;;;;-3.10;100.00;99455.38;4946645;28;20465;-72
2021/01/29 05:21:20;;;;;;;6.43;3.97;;;;;;;-3.07;100.00;99447.78;4953623;28;20965;-72
2021/01/29 05:24:30;;;;;;;6.07;3.77;;;;;;;-3.09;100.00;99428.22;4947956;28;20461;-72
2021/01/29 05:27:35;;;;;;;4.70;3.70;;;;;;;-3.10;100.00;99417.13;4903639;29;20467;-71
2021/01/29 05:30:17;;;;;;;5.27;4.13;;;;;;;-3.17;100.00;99410.25;4942450;28;21030;-72
2021/01/29 05:33:00;;;;;;;6.00;3.63;;;;;;;-3.24;100.00;99406.81;4926897;29;20483;-70
2021/01/29 05:35:44;;;;;;;6.40;4.27;;;;;;;-3.37;100.00;99399.03;4939943;28;20212;-72
2021/01/29 05:38:30;;;;;;;4.80;3.47;;;;;;;-3.40;100.00;99393.88;4943759;28;20519;-73
2021/01/29 05:41:23;;;;;;;5.60;3.53;;;;;;;-3.42;100.00;99397.25;4940662;28;20465;-70
2021/01/29 05:44:13;;;;;;;6.87;3.40;;;;;;;-3.44;100.00;99387.91;4933920;28;20467;-70
2021/01/29 05:46:48;;;;;;;4.80;3.60;;;;;;;-3.48;100.00;99387.00;4951470;28;20515;-70
2021/01/29 05:49:22;;;;;;;7.27;3.60;;;;;;;-3.47;100.00;99387.88;4962427;28;20531;-71
2021/01/29 05:52:13;;;;;;;4.33;3.50;;;;;;;-3.47;100.00;99378.50;4948203;28;20484;-70
2021/01/29 05:55:02;;;;;;;4.40;2.97;;;;;;;-3.52;100.00;99376.75;4949124;28;20451;-71
2021/01/29 05:57:54;;;;;;;4.13;3.13;;;;;;;-3.53;100.00;99375.91;4946897;28;20453;-71
2021/01/29 06:00:39;;;;;;;4.50;3.27;;;;;;;-3.58;100.00;99371.63;4946090;28;21104;-71
2021/01/29 06:03:23;;;;;;;5.87;3.17;;;;;;;-3.65;100.00;99374.06;4927664;28;21242;-71
2021/01/29 06:06:17;;;;;;;4.77;3.23;;;;;;;-3.58;100.00;99354.63;4958117;28;21221;-71
2021/01/29 06:09:02;;;;;;;5.23;3.30;;;;;;;-3.69;100.00;99344.31;4932226;28;20470;-71
2021/01/29 06:11:49;;;;;;;5.80;3.80;;;;;;;-3.91;100.00;99340.66;4945697;28;20495;-71
2021/01/29 06:14:53;;;;;;;5.73;3.37;;;;;;;-3.91;100.00;99337.25;4934740;29;20488;-71
2021/01/29 06:18:08;;;;;;;4.70;2.83;;;;;;;-3.90;100.00;99332.19;4948643;29;20456;-71
2021/01/29 06:21:01;;;;;;;5.07;2.90;;;;;;;-3.91;100.00;99333.03;4948601;28;20502;-75
2021/01/29 06:23:41;;;;;;;3.90;2.80;;;;;;;-3.95;100.00;99322.81;4943836;28;20447;-71
2021/01/29 06:26:20;;;;;;;3.97;3.00;;;;;;;-4.09;100.00;99323.47;4950107;28;21035;-72
2021/01/29 06:29:30;;;;;;;4.33;3.33;;;;;;;-4.17;100.00;99319.97;4946947;28;20459;-70
2021/01/29 06:32:41;;;;;;;4.63;3.37;;;;;;;-4.28;100.00;99330.03;4945116;28;20478;-72
2021/01/29 06:35:24;;;;;;;6.60;3.67;;;;;;;-4.42;100.00;99340.00;4941867;28;20964;-71
2021/01/29 06:38:04;;;;;;;5.93;3.60;;;;;;;-4.40;100.00;99335.81;4946889;29;20974;-71
2021/01/29 06:40:35;;;;;;;5.13;4.07;;;;;;;-4.37;100.00;99335.84;4947095;28;20467;-70
2021/01/29 06:43:30;;;;;;;6.13;4.20;;;;;;;-4.42;100.00;99324.75;4947824;28;20482;-71
2021/01/29 06:46:09;;;;;;;6.30;4.17;;;;;;;-4.51;100.00;99318.69;4946383;28;20564;-70
2021/01/29 06:49:03;;;;;;;6.97;3.70;;;;;;;-4.57;100.00;99311.84;4948753;28;20474;-71
2021/01/29 06:51:50;;;;;;;5.23;3.30;;;;;;;-4.68;100.00;99318.44;4940465;28;20495;-71
2021/01/29 06:54:36;;;;;;;5.40;3.20;;;;;;;-4.68;100.00;99319.28;4949473;28;20478;-71
2021/01/29 06:57:10;;;;;;;4.33;3.17;;;;;;;-4.66;100.00;99316.78;4945904;28;20462;-72
2021/01/29 07:00:02;;;;;;;5.20;3.53;;;;;;;-4.70;100.00;99302.31;4941152;28;20463;-71
2021/01/29 07:02:53;;;;;;;6.37;3.33;;;;;;;-4.64;100.00;99297.31;4946968;28;20492;-71
2021/01/29 07:05:35;;;;;;;4.03;3.03;;;;;;;-4.63;100.00;99296.47;4942871;29;20982;-71
2021/01/29 07:08:20;;;;;;;6.83;3.23;;;;;;;-4.58;100.00;99287.22;4965331;28;20462;-71
2021/01/29 07:10:51;;;;;;;4.87;3.53;;;;;;;-4.52;100.00;99288.97;4943024;29;20463;-70
2021/01/29 07:13:52;;;;;;;3.87;3.37;;;;;;;-4.46;100.00;99287.38;4945931;28;20906;-71
2021/01/29 07:16:31;;;;;;;5.63;4.20;;;;;;;-4.48;100.00;99283.13;4940699;28;20960;-70
2021/01/29 07:19:16;;;;;;;5.37;3.73;;;;;;;-4.39;100.00;99275.59;4947735;28;20465;-71
2021/01/29 07:22:01;;;;;;;5.33;3.57;;;;;;;-4.34;100.00;99270.53;4944926;28;20491;-72
2021/01/29 07:24:39;;;;;;;9.37;3.60;;;;;;;-4.31;100.00;99271.47;4946076;28;20468;-71
2021/01/29 07:27:15;;;;;;;7.53;4.60;;;;;;;-4.23;100.00;99262.22;4941756;28;20458;-70
2021/01/29 07:30:04;;;;;;;7.37;5.20;;;;;;;-4.14;100.00;99258.06;4929018;28;20454;-70
2021/01/29 07:32:42;;;;;;;6.77;4.17;;;;;;;-4.09;100.00;99254.75;4941817;28;20489;-70
2021/01/29 07:35:22;;;;;;;6.17;4.13;;;;;;;-3.98;100.00;99251.44;4942727;28;20455;-70
2021/01/29 07:38:29;;;;;;;6.10;3.67;;;;;;;-3.91;100.00;99248.13;4944333;28;20464;-71
2021/01/29 07:41:06;;;;;;;4.90;3.83;;;;;;;-3.85;100.00;99251.59;4881968;29;20498;-71
2021/01/29 07:43:47;;;;;;;7.07;3.70;;;;;;;-3.78;100.00;99251.66;4883876;29;20470;-70
2021/01/29 07:46:26;;;;;;;5.00;3.80;;;;;;;-3.70;100.00;99252.59;4922380;28;20459;-71
2021/01/29 07:49:17;;;;;;;5.20;4.03;;;;;;;-3.63;100.00;99242.44;4946192;28;20478;-71
2021/01/29 07:51:51;;;;;;;5.17;3.60;;;;;;;-3.58;100.00;99232.31;4944180;28;20479;-71
2021/01/29 07:54:55;;;;;;;5.80;3.60;;;;;;;-3.53;100.00;99228.13;4946846;28;20494;-70
2021/01/29 07:57:56;;;;;;;6.73;3.63;;;;;;;-3.52;100.00;99234.06;4923952;29;20900;-71
2021/01/29 08:00:29;;;;;;;5.37;3.53;;;;;;;-3.46;100.00;99226.47;4940790;28;20460;-70
2021/01/29 08:03:18;;;;;;;5.57;3.70;;;;;;;-3.39;100.00;99228.22;4942712;28;20537;-71
2021/01/29 08:05:53;;;;;;;4.60;3.33;;;;;;;-3.35;100.00;99232.50;4942611;28;20968;-70
2021/01/29 08:08:23;;;;;;;5.77;3.90;;;;;;;-3.29;100.00;99221.50;4945027;28;20461;-71
2021/01/29 08:10:52;;;;;;;5.00;3.43;;;;;;;-3.27;100.00;99214.72;4944251;28;20472;-71
2021/01/29 08:13:24;;;;;;;5.60;3.93;;;;;;;-3.19;100.00;99218.16;4945255;28;20483;-71
2021/01/29 08:16:06;;;;;;;5.43;3.87;;;;;;;-3.15;100.00;99208.84;4944508;28;20871;-72
2021/01/29 08:18:47;;;;;;;5.83;3.90;;;;;;;-3.14;100.00;99205.47;4946524;29;20921;-71
2021/01/29 08:21:47;;;;;;;5.90;4.30;;;;;;;-3.04;100.00;99204.69;4947605;28;20995;-72
2021/01/29 08:24:45;;;;;;;5.60;3.70;;;;;;;-3.01;100.00;99199.56;4937555;29;21060;-71
2021/01/29 08:27:44;;;;;;;5.30;3.43;;;;;;;-2.97;100.00;99196.22;4950220;28;20457;-70
2021/01/29 08:30:43;;;;;;;5.97;3.77;;;;;;;-2.86;100.00;99193.72;4938860;28;20637;-70
2021/01/29 08:33:47;;;;;;;6.47;4.10;;;;;;;-2.81;100.00;99183.53;4925689;29;20483;-70
2021/01/29 08:36:37;;;;;;;5.77;3.43;;;;;;;-2.77;100.00;99178.47;4925196;29;20459;-71
2021/01/29 08:39:11;;;;;;;4.97;3.60;;;;;;;-2.72;100.00;99175.94;4940874;28;20466;-71
2021/01/29 08:41:49;;;;;;;6.53;3.83;;;;;;;-2.58;100.00;99169.19;4938973;28;20893;-70
2021/01/29 08:44:24;;;;;;;5.80;2.90;;;;;;;-2.60;99.38;99162.34;4944619;28;20206;-70
2021/01/29 08:47:10;;;;;;;4.73;3.37;;;;;;;-2.57;98.43;99157.28;4941495;28;20578;-70
2021/01/29 08:49:52;;;;;;;5.13;3.47;;;;;;;-2.54;97.62;99159.84;4936860;28;20213;-71
2021/01/29 08:52:45;;;;;;;8.00;3.43;;;;;;;-2.48;97.73;99147.09;4937879;28;20230;-71
2021/01/29 08:55:23;;;;;;;6.87;3.40;;;;;;;-2.40;98.08;99147.13;4941950;28;20230;-71
2021/01/29 08:57:56;;;;;;;5.90;3.83;;;;;;;-2.35;97.34;99151.38;4941131;28;20563;-71
2021/01/29 09:00:25;;;;;;;5.43;3.43;;;;;;;-2.34;96.19;99142.00;4937998;28;20627;-70
2021/01/29 09:03:02;;;;;;;5.33;3.43;;;;;;;-2.31;95.50;99145.44;4941537;28;20226;-70
2021/01/29 09:05:32;;;;;;;7.23;3.93;;;;;;;-2.32;94.57;99137.78;4939936;28;20233;-71
2021/01/29 09:08:00;;;;;;;6.30;3.47;;;;;;;-2.27;94.96;99133.53;4941185;28;20199;-71
2021/01/29 09:10:43;;;;;;;7.07;4.03;;;;;;;-2.23;94.53;99124.16;4942186;28;20206;-70
2021/01/29 09:13:16;;;;;;;5.47;3.33;;;;;;;-2.20;94.69;99114.84;4941977;28;20218;-71
2021/01/29 09:15:49;;;;;;;6.57;3.77;;;;;;;-2.15;94.58;99114.81;4944689;28;20203;-71
2021/01/29 09:18:20;;;;;;;5.43;3.67;;;;;;;-2.14;93.21;99111.44;4946358;28;20206;-70
2021/01/29 09:21:00;;;;;;;6.17;4.03;;;;;;;-2.12;93.23;99108.00;4947821;28;20607;-71
2021/01/29 09:23:33;;;;;;;5.37;3.37;;;;;;;-2.06;93.44;99101.22;4945105;28;20238;-70
2021/01/29 09:26:04;;;;;;;5.63;3.50;;;;;;;-1.98;94.29;99102.06;4941850;28;20823;-72
2021/01/29 09:28:35;;;;;;;6.57;4.10;;;;;;;-1.98;93.12;99097.81;4944696;28;20218;-71
2021/01/29 09:31:06;;;;;;;5.70;3.50;;;;;;;-1.91;93.13;99106.31;4943308;28;20563;-71
2021/01/29 09:33:37;;;;;;;4.67;3.53;;;;;;;-1.85;93.31;99096.09;4944755;28;20215;-71
2021/01/29 09:36:11;;;;;;;6.57;3.97;;;;;;;-1.81;93.01;99090.16;4947493;28;20222;-71
2021/01/29 09:38:47;;;;;;;7.63;3.97;;;;;;;-1.75;92.15;99091.84;4942598;28;20690;-72
2021/01/29 09:41:18;;;;;;;6.43;3.87;;;;;;;-1.70;92.22;99092.69;4945406;28;20206;-72
2021/01/29 09:43:51;;;;;;;8.33;5.90;;;;;;;-1.63;93.02;99085.88;4947524;28;20203;-71
2021/01/29 09:46:24;;;;;;;9.33;5.37;;;;;;;-1.64;91.51;99087.56;4942980;28;20599;-71
2021/01/29 09:48:56;;;;;;;10.33;6.83;;;;;;;-1.58;91.59;99086.72;4943129;28;20203;-71
2021/01/29 09:51:37;;;;;;;6.20;4.33;;;;;;;-1.57;90.53;99086.69;4944074;28;20230;-71
2021/01/29 09:54:10;;;;;;;6.37;4.23;;;;;;;-1.48;91.35;99078.16;4942310;28;20623;-71
2021/01/29 09:56:41;;;;;;;6.70;3.80;;;;;;;-1.44;91.50;99076.44;4945831;28;20203;-70
2021/01/29 09:59:22;;;;;;;6.87;4.63;;;;;;;-1.36;91.47;99072.19;4941592;28;20211;-72
2021/01/29 10:01:56;;;;;;;5.90;4.27;;;;;;;-1.36;90.56;99073.00;4944568;28;20226;-72
2021/01/29 10:04:29;;;;;;;5.97;3.70;;;;;;;-1.28;90.85;99069.63;4941458;28;20215;-72
2021/01/29 10:07:00;;;;;;;4.47;3.40;;;;;;;-1.29;89.42;99068.75;4945090;28;20194;-71
2021/01/29 10:09:29;;;;;;;5.50;3.47;;;;;;;-1.28;89.25;99057.66;4942054;28;20242;-72
2021/01/29 10:12:03;;;;;;;4.93;3.17;;;;;;;-1.25;89.44;99049.13;4945000;28;20219;-72
2021/01/29 10:14:34;;;;;;;6.43;4.47;;;;;;;-1.21;89.19;99053.38;4948477;28;20283;-72
2021/01/29 10:17:05;;;;;;;6.83;4.03;;;;;;;-1.23;88.02;99058.50;4947729;28;20221;-72
2021/01/29 10:19:39;;;;;;;4.80;3.50;;;;;;;-1.24;88.06;99050.84;4945330;28;20666;-72
2021/01/29 10:22:35;;;;;;;7.17;4.40;;;;;;;-1.18;88.41;99046.56;4943974;28;20301;-71
2021/01/29 10:25:11;;;;;;;5.60;3.50;;;;;;;-1.21;85.82;99050.84;4948867;28;20293;-71
2021/01/29 10:27:45;;;;;;;4.53;2.77;;;;;;;-1.17;86.52;99039.72;4950031;28;20194;-70
2021/01/29 10:30:19;;;;;;;4.20;3.20;;;;;;;-1.19;85.90;99036.31;4941993;28;20210;-71
2021/01/29 10:32:56;;;;;;;6.77;3.60;;;;;;;-1.17;85.62;99039.72;4944378;28;20726;-71
2021/01/29 10:35:26;;;;;;;3.50;2.97;;;;;;;-1.20;84.77;99038.00;4943813;28;20210;-76
2021/01/29 10:38:01;;;;;;;4.60;2.53;;;;;;;-1.17;85.46;99032.91;4945681;28;20212;-72
2021/01/29 10:40:34;;;;;;;3.47;2.63;;;;;;;-1.07;86.38;99028.59;4943299;28;20618;-72
2021/01/29 10:43:07;;;;;;;3.37;2.70;;;;;;;-1.03;85.00;99032.00;4946146;28;21358;-72
2021/01/29 10:45:39;;;;;;;4.70;3.60;;;;;;;-0.97;84.79;99035.38;4962783;28;20217;-72
2021/01/29 10:48:14;;;;;;;5.93;3.80;;;;;;;-0.92;83.60;99037.06;4945325;28;20199;-72
2021/01/29 10:50:46;;;;;;;4.70;2.80;;;;;;;-0.89;82.97;99026.81;4944602;28;20206;-72
2021/01/29 10:53:17;;;;;;;5.23;2.93;;;;;;;-0.83;82.90;99025.06;4948045;28;20591;-71
2021/01/29 10:55:54;;;;;;;3.03;2.23;;;;;;;-0.75;82.32;99025.03;4940086;28;20206;-70
2021/01/29 10:58:29;;;;;;;3.07;2.20;;;;;;;-0.63;84.49;99022.38;4947996;28;20203;-71
2021/01/29 11:00:58;;;;;;;4.80;2.63;;;;;;;-0.59;83.63;99013.81;4944703;28;20424;-71
2021/01/29 11:03:46;;;;;;;6.23;2.50;;;;;;;-0.50;83.64;99005.22;4944750;28;20230;-71
2021/01/29 11:06:16;;;;;;;20.70;8.07;;;;;;;-0.52;82.85;99011.22;4947869;28;20207;-72
2021/01/29 11:08:46;;;;;;;5.00;2.37;;;;;;;-0.51;83.05;99002.66;4945622;28;20203;-72
2021/01/29 11:11:21;;;;;;;2.77;2.23;;;;;;;-0.47;83.39;98991.56;4949482;28;20231;-72
2021/01/29 11:13:55;;;;;;;3.77;2.30;;;;;;;-0.42;83.54;98988.09;4944443;28;20298;-72
2021/01/29 11:16:28;;;;;;;2.73;2.10;;;;;;;-0.43;83.66;98986.38;4944951;28;20733;-72
2021/01/29 11:18:58;;;;;;;3.23;2.40;;;;;;;-0.42;82.34;98994.94;4946144;28;20203;-72
2021/01/29 11:21:31;;;;;;;6.27;2.93;;;;;;;-0.32;83.57;98985.47;4944850;28;20226;-72
2021/01/29 11:24:09;;;;;;;4.87;2.80;;;;;;;-0.23;83.93;98978.56;4942548;28;20218;-72
2021/01/29 11:26:43;;;;;;;6.47;3.10;;;;;;;-0.18;83.05;98968.25;4939481;28;20223;-71
2021/01/29 11:29:14;;;;;;;4.53;2.87;;;;;;;-0.17;81.64;98969.13;4949014;28;20210;-72
2021/01/29 11:31:45;;;;;;;13.03;6.07;;;;;;;-0.08;83.17;98959.63;4943706;28;20230;-72
2021/01/29 11:34:21;;;;;;;4.30;2.80;;;;;;;-0.11;81.95;98961.38;4946864;28;20223;-71
2021/01/29 11:36:57;;;;;;;6.90;2.80;;;;;;;-0.24;80.83;98968.31;4945645;28;20653;-72
2021/01/29 11:39:31;;;;;;;4.53;3.00;;;;;;;-0.19;82.16;98956.34;4941016;28;20219;-71
2021/01/29 11:42:06;;;;;;;3.83;2.83;;;;;;;-0.28;81.92;98959.81;4939278;28;20221;-72
2021/01/29 11:44:42;;;;;;;4.67;2.93;;;;;;;-0.26;81.83;98952.13;4943276;28;20668;-71
2021/01/29 11:47:19;;;;;;;4.40;3.00;;;;;;;-0.30;82.04;98941.06;4946109;28;21052;-72
2021/01/29 11:49:56;;;;;;;7.87;3.07;;;;;;;-0.32;82.37;98936.78;4946253;28;20213;-72
2021/01/29 11:52:29;;;;;;;4.77;3.07;;;;;;;-0.33;82.43;98930.84;4949175;28;20244;-72
2021/01/29 11:55:06;;;;;;;5.23;3.27;;;;;;;-0.35;82.44;98929.13;4941121;28;20706;-72
2021/01/29 11:57:41;;;;;;;4.70;2.83;;;;;;;-0.42;82.21;98920.69;4950400;28;20204;-72
2021/01/29 12:00:17;;;;;;;7.07;3.13;;;;;;;-0.40;82.99;98909.53;4948040;28;20618;-72
2021/01/29 12:02:51;;;;;;;6.83;3.50;;;;;;;-0.47;82.66;98917.31;4946033;28;20245;-72
2021/01/29 12:05:26;;;;;;;3.60;2.80;;;;;;;-0.40;82.90;98911.28;4945870;28;20257;-72
2021/01/29 12:08:03;;;;;;;7.80;3.90;;;;;;;-0.37;82.47;98913.78;4943233;28;20209;-73
2021/01/29 12:10:39;;;;;;;7.87;4.33;;;;;;;-0.33;82.68;98906.94;4941208;28;20286;-73
2021/01/29 12:13:13;;;;;;;8.30;4.37;;;;;;;-0.32;82.32;98898.38;4946790;28;20284;-72
2021/01/29 12:15:42;;;;;;;8.10;4.53;;;;;;;-0.36;80.64;98900.13;4942117;28;20443;-73
2021/01/29 12:18:12;;;;;;;5.60;2.60;;;;;;;-0.39;78.79;98908.69;4946302;28;20206;-73
2021/01/29 12:20:40;;;;;;;8.33;3.73;;;;;;;-0.41;78.67;98897.59;4944445;28;20215;-72
2021/01/29 12:23:25;;;;;;;8.00;4.00;;;;;;;-0.41;78.15;98895.03;4944403;28;20234;-72
2021/01/29 12:26:00;;;;;;;4.80;2.33;;;;;;;-0.41;78.58;98883.94;4942728;28;20244;-72
2021/01/29 12:28:40;;;;;;;4.10;2.77;;;;;;;-0.44;77.45;98882.28;4946698;28;20264;-72
2021/01/29 12:31:21;;;;;;;5.03;2.70;;;;;;;-0.44;77.56;98881.41;4942956;28;20262;-71